Time;durP1;ratioP1;P1;durP2;ratioP2;P2;SDS_P1;SDS_P2;PMS_P1;PMS_P2;Temp;Humidity;BMP_temperature;BMP_pressure;BME280_temperature;BME280_humidity;BME280_pressure;Samples;Min_cycle;Max_cycle;Signal;HPM_P1;HPM_P2
2022/09/16 00:01:39;;;;;;;;;;;14.70;99.90;;;13.99;100.00;95095.56;10437082;28;2489;-77
2022/09/16 00:06:42;;;;;;;;;;;14.80;99.90;;;13.91;100.00;95087.44;10437070;28;2463;-76
2022/09/16 00:11:45;;;;;;;;;;;14.70;99.90;;;13.95;100.00;95081.09;10441512;28;2287;-76
2022/09/16 00:16:48;;;;;;;;;;;14.70;99.90;;;13.94;100.00;95076.03;10440228;28;2315;-76
2022/09/16 00:21:50;;;;;;;;;;;14.80;99.90;;;14.03;100.00;95074.94;10425471;28;2397;-76
2022/09/16 00:26:53;;;;;;;;;;;14.80;99.90;;;14.04;100.00;95064.91;10441861;28;2344;-77
2022/09/16 00:31:56;;;;;;;;;;;14.80;99.90;;;14.06;100.00;95060.81;10429813;28;2410;-76
2022/09/16 00:36:59;;;;;;;;;;;14.90;99.90;;;14.05;100.00;95044.88;10444023;28;2325;-74
2022/09/16 00:42:02;;;;;;;;;;;14.90;99.90;;;13.85;100.00;95057.06;10441174;28;2603;-75
2022/09/16 00:47:05;;;;;;;;;;;14.80;99.90;;;13.76;100.00;95067.03;10454813;28;2339;-75
2022/09/16 00:52:08;;;;;;;;;;;14.70;99.90;;;13.53;100.00;95067.06;10449761;28;2370;-75
2022/09/16 00:57:11;;;;;;;;;;;14.60;99.90;;;13.42;100.00;95075.72;10430158;28;2353;-77
2022/09/16 01:02:13;;;;;;;;;;;14.40;99.90;;;13.47;100.00;95083.69;10449344;28;2732;-77
2022/09/16 01:07:16;;;;;;;;;;;14.30;99.90;;;13.49;100.00;95074.19;10449588;28;2353;-78
2022/09/16 01:12:19;;;;;;;;;;;14.30;99.90;;;13.36;100.00;95075.06;10448329;28;2361;-78
2022/09/16 01:17:22;;;;;;;;;;;14.30;99.90;;;13.39;100.00;95074.44;10448956;28;2391;-78
2022/09/16 01:22:25;;;;;;;;;;;14.20;99.90;;;13.29;100.00;95068.50;10445915;28;2305;-77
2022/09/16 01:27:33;;;;;;;;;;;14.30;99.90;;;13.23;100.00;95067.81;10446208;28;2319;-77
2022/09/16 01:32:36;;;;;;;;;;;14.20;99.90;;;13.23;100.00;95074.03;10446186;28;2399;-78
2022/09/16 01:37:38;;;;;;;;;;;14.10;99.90;;;13.20;100.00;95073.81;10450578;28;2350;-77
2022/09/16 01:42:41;;;;;;;;;;;14.20;99.90;;;13.12;100.00;95059.16;10449387;28;2279;-79
2022/09/16 01:47:44;;;;;;;;;;;14.00;99.90;;;13.20;100.00;95073.81;10456785;28;2333;-80
2022/09/16 01:52:47;;;;;;;;;;;14.10;99.90;;;13.30;100.00;95076.31;10445967;28;2409;-78
2022/09/16 01:57:50;;;;;;;;;;;14.10;99.90;;;13.35;100.00;95065.34;10451125;28;2314;-79
2022/09/16 02:02:53;;;;;;;;;;;14.20;99.90;;;13.33;100.00;95072.97;10452240;28;2353;-78
2022/09/16 02:07:55;;;;;;;;;;;14.10;99.90;;;13.42;100.00;95060.34;10454187;28;2327;-78
2022/09/16 02:12:58;;;;;;;;;;;14.20;99.90;;;13.56;100.00;95060.25;10449772;28;2323;-80
2022/09/16 02:18:01;;;;;;;;;;;14.30;99.90;;;13.55;100.00;95065.94;10441698;28;2307;-78
2022/09/16 02:23:04;;;;;;;;;;;14.40;99.90;;;13.60;100.00;95072.03;10424409;28;2425;-78
2022/09/16 02:28:07;;;;;;;;;;;14.40;99.90;;;13.63;100.00;95071.41;10441318;28;2490;-79
2022/09/16 02:33:10;;;;;;;;;;;14.40;99.90;;;13.60;100.00;95057.72;10442090;28;2369;-78
2022/09/16 02:38:13;;;;;;;;;;;14.40;99.90;;;13.66;100.00;95064.59;10425795;28;2349;-78
2022/09/16 02:43:16;;;;;;;;;;;14.40;99.90;;;13.77;100.00;95063.22;10442767;28;2334;-78
2022/09/16 02:48:19;;;;;;;;;;;14.50;99.90;;;13.76;100.00;95058.94;10441315;28;2323;-78
2022/09/16 02:53:22;;;;;;;;;;;14.60;99.90;;;13.82;100.00;95054.97;10444803;28;2371;-77
2022/09/16 02:58:25;;;;;;;;;;;14.50;99.90;;;13.78;100.00;95056.69;10441393;28;2374;-77
2022/09/16 03:03:28;;;;;;;;;;;14.50;99.90;;;13.69;100.00;95048.56;10446594;28;2323;-76
2022/09/16 03:08:31;;;;;;;;;;;14.50;99.90;;;13.78;100.00;95054.00;10439417;28;2347;-77
2022/09/16 03:13:33;;;;;;;;;;;14.50;99.90;;;13.78;100.00;95046.69;10441387;28;2341;-77
2022/09/16 03:18:36;;;;;;;;;;;14.60;99.90;;;13.74;100.00;95042.22;10435805;28;2359;-77
2022/09/16 03:23:43;;;;;;;;;;;14.50;99.90;;;13.66;100.00;95041.06;10442001;28;2308;-77
2022/09/16 03:28:47;;;;;;;;;;;14.50;99.90;;;13.73;100.00;95038.72;10442110;28;2341;-76
2022/09/16 03:33:49;;;;;;;;;;;14.50;99.90;;;13.67;100.00;95023.75;10443217;28;2367;-77
2022/09/16 03:38:52;;;;;;;;;;;14.50;99.90;;;13.50;100.00;95029.88;10442451;28;2381;-77
2022/09/16 03:43:55;;;;;;;;;;;14.40;99.90;;;13.56;100.00;95027.06;10441172;28;2231;-77
2022/09/16 03:49:04;;;;;;;;;;;14.30;99.90;;;13.66;100.00;95026.78;10436315;28;2439;-77
2022/09/16 03:54:07;;;;;;;;;;;14.40;99.90;;;13.61;100.00;95021.50;10440432;28;2319;-77
2022/09/16 03:59:10;;;;;;;;;;;14.40;99.90;;;13.45;100.00;95021.13;10445684;28;2299;-78
2022/09/16 04:04:12;;;;;;;;;;;14.40;99.90;;;13.34;100.00;95019.78;10443868;28;2327;-77
2022/09/16 04:09:15;;;;;;;;;;;14.20;99.90;;;13.20;100.00;95022.53;10448174;28;2295;-77
2022/09/16 04:14:19;;;;;;;;;;;14.10;99.90;;;13.17;100.00;95031.25;10448048;28;2366;-76
2022/09/16 04:19:22;;;;;;;;;;;14.10;99.90;;;13.08;100.00;95028.47;10450397;28;2275;-76
2022/09/16 04:24:24;;;;;;;;;;;14.00;99.90;;;13.11;100.00;95032.50;10448231;28;2258;-76
2022/09/16 04:29:27;;;;;;;;;;;14.00;99.90;;;13.20;100.00;95026.06;10452222;28;2345;-75
2022/09/16 04:34:31;;;;;;;;;;;14.00;99.90;;;13.15;100.00;95041.53;10449428;28;2524;-79
2022/09/16 04:39:34;;;;;;;;;;;14.00;99.90;;;13.23;100.00;95036.25;10463033;28;2390;-82
2022/09/16 04:44:36;;;;;;;;;;;14.10;99.90;;;13.27;100.00;95035.63;10467365;28;2276;-83
2022/09/16 04:49:39;;;;;;;;;;;14.10;99.90;;;13.30;100.00;95035.81;10481850;28;2398;-84
2022/09/16 04:54:42;;;;;;;;;;;14.10;99.90;;;13.41;100.00;95056.03;10485177;28;2439;-81
2022/09/16 04:59:45;;;;;;;;;;;14.20;99.90;;;13.41;100.00;95039.81;10473427;28;2291;-84
2022/09/16 05:04:48;;;;;;;;;;;14.20;99.90;;;13.34;100.00;95042.16;10462177;28;2219;-84
2022/09/16 05:09:51;;;;;;;;;;;14.20;99.90;;;13.32;100.00;95047.09;10462420;28;2466;-83
2022/09/16 05:14:54;;;;;;;;;;;14.20;99.90;;;13.33;100.00;95055.97;10448397;28;2239;-77
2022/09/16 05:19:57;;;;;;;;;;;14.10;99.90;;;13.24;100.00;95066.72;10454864;28;2396;-79
2022/09/16 05:24:59;;;;;;;;;;;14.10;99.90;;;13.09;100.00;95059.75;10460923;28;2349;-82
2022/09/16 05:30:03;;;;;;;;;;;14.00;99.90;;;13.14;100.00;95056.13;10450082;28;2806;-83
2022/09/16 05:35:06;;;;;;;;;;;14.00;99.90;;;13.07;100.00;95053.88;10457534;28;1891;-83
2022/09/16 05:40:08;;;;;;;;;;;13.90;99.90;;;12.94;100.00;95047.44;10454545;28;2348;-81
2022/09/16 05:45:12;;;;;;;;;;;13.90;99.90;;;12.95;100.00;95046.31;10445497;28;2370;-79
2022/09/16 05:50:15;;;;;;;;;;;13.80;99.90;;;12.97;100.00;95041.41;10460994;28;2359;-80
2022/09/16 05:55:18;;;;;;;;;;;13.70;99.90;;;13.15;100.00;95038.84;10449064;28;2286;-79
2022/09/16 06:00:21;;;;;;;;;;;13.80;99.90;;;13.41;100.00;95042.53;10454479;28;2282;-79
2022/09/16 06:05:24;;;;;;;;;;;14.00;99.90;;;13.61;100.00;95040.41;10447988;28;2314;-79
2022/09/16 06:10:28;;;;;;;;;;;14.20;99.90;;;13.64;100.00;95031.69;10440623;28;2315;-77
2022/09/16 06:15:31;;;;;;;;;;;14.30;99.90;;;13.81;100.00;95036.41;10443767;28;2350;-80
2022/09/16 06:20:34;;;;;;;;;;;14.50;99.90;;;13.71;100.00;95032.03;10449395;28;2342;-80
2022/09/16 06:25:36;;;;;;;;;;;14.50;99.90;;;13.82;100.00;95030.66;10446848;28;2370;-80
2022/09/16 06:30:39;;;;;;;;;;;14.40;99.90;;;13.78;100.00;95029.69;10440269;28;2284;-80
2022/09/16 06:35:42;;;;;;;;;;;14.50;99.90;;;13.79;100.00;95033.97;10448628;28;2341;-81
2022/09/16 06:40:45;;;;;;;;;;;14.50;99.90;;;13.72;100.00;95036.34;10442990;28;2413;-69
2022/09/16 06:45:48;;;;;;;;;;;14.50;99.90;;;13.47;100.00;95021.59;10436877;28;2307;-70
2022/09/16 06:50:52;;;;;;;;;;;14.40;99.90;;;13.34;100.00;95036.78;10431610;28;2433;-67
2022/09/16 06:55:54;;;;;;;;;;;14.20;99.90;;;13.39;100.00;95033.94;10432711;28;2397;-67
2022/09/16 07:00:57;;;;;;;;;;;14.10;99.90;;;13.58;100.00;95038.34;10437447;28;2617;-68
2022/09/16 07:06:00;;;;;;;;;;;14.30;99.90;;;13.76;100.00;95026.50;10431176;28;2601;-68
2022/09/16 07:11:03;;;;;;;;;;;14.40;99.90;;;13.78;100.00;95019.69;10438308;28;2536;-69
2022/09/16 07:16:06;;;;;;;;;;;14.40;99.90;;;14.02;100.00;95030.09;10437153;28;2608;-67
2022/09/16 07:21:17;;;;;;;;;;;14.70;99.90;;;14.03;100.00;95030.91;10435525;28;2651;-67
2022/09/16 07:26:20;;;;;;;;;;;14.60;99.90;;;14.06;100.00;95033.78;10438737;28;2593;-68
2022/09/16 07:31:26;;;;;;;;;;;14.70;99.90;;;14.16;100.00;95029.19;10437729;28;2653;-68
2022/09/16 07:36:29;;;;;;;;;;;14.70;99.90;;;14.26;100.00;95034.31;10433639;28;2681;-69
2022/09/16 07:41:32;;;;;;;;;;;14.70;99.90;;;14.44;100.00;95029.72;10442856;28;2572;-70
2022/09/16 07:46:35;;;;;;;;;;;15.00;99.90;;;14.78;100.00;95024.38;10447127;28;2565;-76
2022/09/16 07:51:38;;;;;;;;;;;15.20;99.90;;;15.01;100.00;95016.88;10442462;28;2619;-68
2022/09/16 07:56:41;;;;;;;;;;;15.50;99.90;;;15.25;100.00;95010.97;10427578;28;2682;-70
2022/09/16 08:01:44;;;;;;;;;;;15.80;99.90;;;15.80;100.00;95017.53;10436614;28;2533;-69
2022/09/16 08:06:47;;;;;;;;;;;16.10;99.90;;;16.05;100.00;95016.63;10442035;28;2565;-69
2022/09/16 08:11:50;;;;;;;;;;;16.30;99.90;;;16.28;100.00;95013.63;10446317;28;2779;-69
2022/09/16 08:16:53;;;;;;;;;;;16.50;99.90;;;16.26;100.00;95013.97;10456026;28;2755;-68
2022/09/16 08:21:56;;;;;;;;;;;16.70;99.90;;;16.55;100.00;95023.22;10443369;28;2632;-70
2022/09/16 08:26:59;;;;;;;;;;;17.20;99.90;;;16.78;100.00;95021.00;10429470;28;2663;-71
2022/09/16 08:32:02;;;;;;;;;;;17.10;99.90;;;16.75;100.00;95027.91;10438733;28;2564;-76
2022/09/16 08:37:04;;;;;;;;;;;17.30;99.90;;;16.61;100.00;95027.34;10439608;28;2776;-74
2022/09/16 08:42:07;;;;;;;;;;;17.20;99.90;;;16.54;100.00;95022.44;10439569;28;2624;-71
2022/09/16 08:47:10;;;;;;;;;;;17.10;99.90;;;17.06;100.00;95021.28;10442285;28;2736;-72
2022/09/16 08:52:18;;;;;;;;;;;17.30;99.90;;;17.51;100.00;95013.94;10437099;28;2665;-71
2022/09/16 08:57:20;;;;;;;;;;;17.60;99.90;;;17.06;100.00;95016.63;10440187;28;2556;-72
2022/09/16 09:02:23;;;;;;;;;;;17.70;99.90;;;17.22;100.00;95020.31;10443862;28;2584;-70
2022/09/16 09:07:26;;;;;;;;;;;17.80;99.90;;;16.96;100.00;95017.03;10441682;28;2526;-70
2022/09/16 09:12:29;;;;;;;;;;;17.70;99.90;;;16.72;100.00;95018.47;10439683;28;2577;-69
2022/09/16 09:17:34;;;;;;;;;;;17.50;99.90;;;16.66;100.00;95018.97;10435992;28;2704;-69
2022/09/16 09:22:49;;;;;;;;;;;17.30;99.90;;;15.96;100.00;95007.72;10430621;28;2620;-74
2022/09/16 09:27:52;;;;;;;;;;;17.00;99.90;;;15.95;100.00;95012.38;10438167;28;2613;-71
2022/09/16 09:32:54;;;;;;;;;;;16.70;99.90;;;15.65;100.00;95008.84;10439266;28;2584;-71
2022/09/16 09:37:57;;;;;;;;;;;16.60;99.90;;;15.16;100.00;94996.66;10436198;28;2627;-70
2022/09/16 09:43:00;;;;;;;;;;;16.30;99.90;;;14.68;100.00;94999.53;10438301;28;2624;-70
2022/09/16 09:48:03;;;;;;;;;;;15.80;99.90;;;14.43;100.00;95001.88;10437121;28;2672;-70
2022/09/16 09:53:06;;;;;;;;;;;15.50;99.90;;;14.30;100.00;95014.41;10426767;28;2645;-70
2022/09/16 09:58:09;;;;;;;;;;;15.30;99.90;;;14.12;100.00;95017.41;10432116;28;2896;-70
2022/09/16 10:03:13;;;;;;;;;;;15.10;99.90;;;13.75;100.00;95012.22;10434354;28;2692;-71
2022/09/16 10:08:16;;;;;;;;;;;14.90;99.90;;;13.49;100.00;95017.50;10438772;28;2637;-71
2022/09/16 10:13:19;;;;;;;;;;;14.60;99.90;;;13.51;100.00;95009.09;10433912;28;2624;-72
2022/09/16 10:18:22;;;;;;;;;;;14.50;99.90;;;13.66;100.00;95014.06;10440461;28;2636;-71
2022/09/16 10:23:24;;;;;;;;;;;14.40;99.90;;;13.61;100.00;95011.50;10415896;28;2644;-72
2022/09/16 10:28:31;;;;;;;;;;;14.50;99.90;;;13.33;100.00;95002.78;10433589;28;2688;-71
2022/09/16 10:33:35;;;;;;;;;;;14.30;99.90;;;13.21;100.00;95005.25;10436814;28;2605;-71
2022/09/16 10:38:40;;;;;;;;;;;14.00;99.90;;;13.26;100.00;94997.03;10432740;28;2609;-72
2022/09/16 10:43:44;;;;;;;;;;;14.00;99.90;;;13.31;100.00;94998.81;10428609;28;2599;-71
2022/09/16 10:48:47;;;;;;;;;;;14.00;99.90;;;12.40;100.00;95008.75;10432834;28;2589;-73
2022/09/16 10:53:50;;;;;;;;;;;;;;;11.32;100.00;95003.91;10416424;28;2636;-72
2022/09/16 10:58:54;;;;;;;;;;;;;;;11.13;100.00;95003.13;10433031;28;2580;-71
2022/09/16 11:03:58;;;;;;;;;;;11.90;99.90;;;10.69;100.00;94999.03;10429598;28;2597;-72
2022/09/16 11:09:01;;;;;;;;;;;11.80;99.90;;;10.45;100.00;95009.88;10439408;28;2620;-72
2022/09/16 11:14:03;;;;;;;;;;;11.30;99.90;;;10.47;100.00;95014.94;10435586;28;2752;-74
2022/09/16 11:19:06;;;;;;;;;;;11.20;99.90;;;10.55;100.00;95035.78;10441322;28;2569;-77
2022/09/16 11:24:09;;;;;;;;;;;;;;;10.44;100.00;95018.22;10446994;28;2639;-73
2022/09/16 11:29:12;;;;;;;;;;;11.20;99.90;;;10.65;100.00;95034.84;10438750;28;2560;-73
2022/09/16 11:34:15;;;;;;;;;;;11.40;99.90;;;10.67;100.00;95020.00;10433945;28;2788;-73
2022/09/16 11:39:18;;;;;;;;;;;11.50;99.90;;;10.71;100.00;95031.78;10432533;28;2490;-72
2022/09/16 11:44:22;;;;;;;;;;;11.50;99.90;;;10.20;100.00;95045.13;10434554;28;2654;-72
2022/09/16 11:49:26;;;;;;;;;;;11.30;99.90;;;9.97;100.00;95049.41;10431142;28;2617;-73
2022/09/16 11:54:28;;;;;;;;;;;10.90;99.90;;;10.06;100.00;95054.97;10416689;28;2621;-74
2022/09/16 11:59:31;;;;;;;;;;;10.80;99.90;;;10.36;100.00;95062.63;10432578;28;2677;-74
2022/09/16 12:04:34;;;;;;;;;;;10.90;99.90;;;10.36;100.00;95072.59;10429850;28;2589;-76
2022/09/16 12:09:40;;;;;;;;;;;11.10;99.90;;;10.52;100.00;95063.25;10417051;28;2598;-74
2022/09/16 12:14:43;;;;;;;;;;;11.20;99.90;;;10.27;100.00;95059.00;10430024;28;2635;-75
2022/09/16 12:19:46;;;;;;;;;;;11.20;99.90;;;10.48;100.00;95064.91;10428913;28;2561;-74
2022/09/16 12:24:49;;;;;;;;;;;11.20;99.90;;;10.81;100.00;95074.66;10434826;28;2568;-73
2022/09/16 12:29:51;;;;;;;;;;;11.40;99.90;;;10.89;100.00;95075.09;10436735;28;2664;-71
2022/09/16 12:34:55;;;;;;;;;;;11.60;99.90;;;10.88;100.00;95089.59;10434188;28;2790;-74
2022/09/16 12:39:58;;;;;;;;;;;11.80;99.90;;;10.97;100.00;95087.84;10438955;28;2581;-72
2022/09/16 12:45:01;;;;;;;;;;;11.80;99.90;;;10.74;100.00;95098.41;10441294;28;2647;-74
2022/09/16 12:50:04;;;;;;;;;;;11.70;99.90;;;10.68;100.00;95117.56;10423789;28;2616;-67
2022/09/16 12:55:07;;;;;;;;;;;11.70;99.90;;;10.61;100.00;95104.50;10440287;28;2645;-68
2022/09/16 13:00:11;;;;;;;;;;;11.60;99.90;;;10.40;100.00;95106.66;10443380;28;2577;-75
2022/09/16 13:05:14;;;;;;;;;;;11.50;99.90;;;10.53;100.00;95102.47;10445407;28;2608;-74
2022/09/16 13:10:18;;;;;;;;;;;11.40;99.90;;;10.39;100.00;95113.13;10445038;28;2606;-69
2022/09/16 13:15:36;;;;;;;;;;;11.30;99.90;;;10.38;100.00;95105.34;10441576;28;2655;-67
2022/09/16 13:20:39;;;;;;;;;;;11.40;99.90;;;10.47;100.00;95092.88;10445028;28;2624;-69
2022/09/16 13:25:42;;;;;;;;;;;11.30;99.90;;;10.65;100.00;95077.84;10440151;28;2608;-68
2022/09/16 13:30:45;;;;;;;;;;;11.40;99.90;;;10.63;100.00;95072.78;10445693;28;2641;-68
2022/09/16 13:35:49;;;;;;;;;;;11.50;99.90;;;10.78;100.00;95061.78;10447433;28;2601;-68
2022/09/16 13:40:51;;;;;;;;;;;11.50;99.90;;;10.96;100.00;95072.81;10441537;28;2612;-67
2022/09/16 13:45:54;;;;;;;;;;;11.80;99.90;;;10.81;100.00;95076.53;10444158;28;2628;-68
2022/09/16 13:50:57;;;;;;;;;;;11.80;99.90;;;11.01;100.00;95086.19;10428889;28;2565;-69
2022/09/16 13:56:00;;;;;;;;;;;11.80;99.90;;;11.10;100.00;95095.19;10441947;28;2643;-69
2022/09/16 14:01:03;;;;;;;;;;;11.90;99.90;;;11.08;100.00;95103.56;10441704;28;2643;-69
2022/09/16 14:06:06;;;;;;;;;;;12.00;99.90;;;11.18;100.00;95091.81;10440682;28;2609;-69
2022/09/16 14:11:09;;;;;;;;;;;12.00;99.90;;;11.22;100.00;95114.38;10443476;28;2660;-69
2022/09/16 14:16:12;;;;;;;;;;;12.10;99.90;;;11.07;100.00;95123.47;10441685;28;2691;-69
2022/09/16 14:21:15;;;;;;;;;;;12.00;99.90;;;11.15;100.00;95124.69;10447112;28;2636;-69
2022/09/16 14:26:18;;;;;;;;;;;12.00;99.90;;;11.22;100.00;95129.72;10445404;28;3197;-69
2022/09/16 14:31:21;;;;;;;;;;;12.00;99.90;;;11.29;100.00;95128.25;10443897;28;2601;-69
2022/09/16 14:36:24;;;;;;;;;;;12.20;99.90;;;11.55;100.00;95117.06;10443205;28;2601;-70
2022/09/16 14:41:27;;;;;;;;;;;12.40;99.90;;;11.60;100.00;95125.03;10440939;28;2772;-75
2022/09/16 14:46:29;;;;;;;;;;;12.50;99.90;;;11.59;100.00;95129.63;10434020;28;2584;-77
2022/09/16 14:51:34;;;;;;;;;;;12.50;99.90;;;11.44;100.00;95126.38;10434225;28;2592;-73
2022/09/16 14:56:37;;;;;;;;;;;12.50;99.90;;;11.49;100.00;95129.00;10437242;28;2680;-73
2022/09/16 15:01:40;;;;;;;;;;;12.50;99.90;;;11.36;100.00;95127.84;10437860;28;2623;-74
2022/09/16 15:06:43;;;;;;;;;;;12.40;99.90;;;11.54;100.00;95131.59;10438688;28;2588;-72
2022/09/16 15:11:45;;;;;;;;;;;12.50;99.90;;;11.64;100.00;95126.03;10430371;28;2566;-73
2022/09/16 15:16:50;;;;;;;;;;;12.60;99.90;;;11.69;100.00;95125.94;10435127;28;2624;-73
2022/09/16 15:21:53;;;;;;;;;;;12.60;99.90;;;11.74;100.00;95131.25;10426211;28;2616;-72
2022/09/16 15:26:59;;;;;;;;;;;12.70;99.90;;;11.69;100.00;95123.25;10435331;28;2636;-72
2022/09/16 15:32:02;;;;;;;;;;;12.70;99.90;;;11.62;100.00;95125.53;10439179;28;2600;-72
2022/09/16 15:37:04;;;;;;;;;;;12.80;99.90;;;11.67;100.00;95136.22;10441422;28;2620;-72
2022/09/16 15:42:07;;;;;;;;;;;12.70;99.90;;;11.63;100.00;95116.38;10437194;28;2703;-77
2022/09/16 15:47:10;;;;;;;;;;;12.70;99.90;;;11.59;100.00;95112.69;10435389;28;2654;-78
2022/09/16 15:52:13;;;;;;;;;;;12.70;99.90;;;11.45;100.00;95117.22;10428546;28;2695;-73
2022/09/16 15:57:16;;;;;;;;;;;12.70;99.90;;;11.42;100.00;95104.38;10443412;28;2639;-74
2022/09/16 16:02:19;;;;;;;;;;;12.60;99.90;;;11.55;100.00;95099.00;10444806;28;2636;-72
2022/09/16 16:07:22;;;;;;;;;;;12.60;99.90;;;11.72;100.00;95095.75;10451058;28;2719;-73
2022/09/16 16:12:25;;;;;;;;;;;12.70;99.90;;;11.78;100.00;95110.72;10432971;28;2565;-71
2022/09/16 16:17:28;;;;;;;;;;;12.80;99.90;;;11.82;100.00;95111.75;10447108;28;2636;-73
2022/09/16 16:22:36;;;;;;;;;;;12.90;99.90;;;11.81;100.00;95112.84;10448227;28;2598;-71
2022/09/16 16:27:39;;;;;;;;;;;12.90;99.90;;;11.76;100.00;95106.72;10447523;28;2608;-72
2022/09/16 16:32:43;;;;;;;;;;;12.90;99.90;;;11.68;100.00;95104.72;10448815;28;2635;-72
2022/09/16 16:37:46;;;;;;;;;;;12.80;99.90;;;11.63;100.00;95100.22;10445813;28;2628;-72
2022/09/16 16:42:49;;;;;;;;;;;12.80;99.90;;;11.61;100.00;95107.78;10449876;28;2536;-71
2022/09/16 16:47:52;;;;;;;;;;;12.80;99.90;;;11.46;100.00;95105.38;10450899;28;2593;-73
2022/09/16 16:52:55;;;;;;;;;;;12.70;99.90;;;11.44;100.00;95111.03;10447190;28;2636;-73
2022/09/16 16:57:58;;;;;;;;;;;12.60;99.90;;;11.44;100.00;95107.53;10444714;28;2664;-72
2022/09/16 17:03:01;;;;;;;;;;;12.60;99.90;;;11.31;100.00;95109.91;10444554;28;2581;-73
2022/09/16 17:08:09;;;;;;;;;;;12.50;99.90;;;11.30;100.00;95121.75;10426601;28;2542;-72
2022/09/16 17:13:11;;;;;;;;;;;12.50;99.90;;;11.23;100.00;95121.34;10444849;28;2612;-73
2022/09/16 17:18:15;;;;;;;;;;;12.50;99.90;;;11.17;100.00;95110.94;10445235;28;2637;-72
2022/09/16 17:23:17;;;;;;;;;;;12.40;99.90;;;11.07;100.00;95117.31;10435447;28;2629;-73
2022/09/16 17:28:20;;;;;;;;;;;12.30;99.90;;;11.03;100.00;95113.59;10447310;28;2667;-72
2022/09/16 17:33:23;;;;;;;;;;;12.30;99.90;;;10.99;100.00;95104.50;10426063;28;2576;-72
2022/09/16 17:38:26;;;;;;;;;;;12.20;99.90;;;10.92;100.00;95109.44;10445042;28;2623;-73
2022/09/16 17:43:28;;;;;;;;;;;12.20;99.90;;;10.67;100.00;95106.03;10438016;28;2613;-73
2022/09/16 17:48:35;;;;;;;;;;;12.00;99.90;;;10.48;100.00;95094.47;10448485;28;2581;-73
2022/09/16 17:53:38;;;;;;;;;;;11.80;99.90;;;10.46;100.00;95096.66;10437750;28;2628;-72
2022/09/16 17:58:40;;;;;;;;;;;11.80;99.90;;;10.42;100.00;95104.47;10443944;28;2740;-72
2022/09/16 18:03:43;;;;;;;;;;;11.70;99.90;;;10.43;100.00;95106.09;10440539;28;2639;-73
2022/09/16 18:08:46;;;;;;;;;;;11.70;99.90;;;10.28;100.00;95096.31;10449280;28;2597;-76
2022/09/16 18:13:49;;;;;;;;;;;11.60;99.90;;;10.18;100.00;95101.81;10447087;28;2735;-75
2022/09/16 18:18:52;;;;;;;;;;;11.60;99.90;;;10.03;100.00;95105.44;10446758;28;2564;-73
2022/09/16 18:23:55;;;;;;;;;;;11.50;99.90;;;10.11;100.00;95101.31;10449308;28;2663;-75
2022/09/16 18:28:59;;;;;;;;;;;11.40;99.90;;;10.07;100.00;95110.25;10442333;28;2627;-73
2022/09/16 18:34:17;;;;;;;;;;;11.40;99.90;;;10.18;100.00;95117.91;10442225;28;2681;-72
2022/09/16 18:39:20;;;;;;;;;;;11.40;99.90;;;10.29;100.00;95124.78;10423382;28;2573;-72
2022/09/16 18:44:23;;;;;;;;;;;11.40;99.90;;;10.38;100.00;95132.22;10439620;28;2573;-73
2022/09/16 18:49:28;;;;;;;;;;;11.50;99.90;;;10.40;100.00;95130.84;10443857;28;2864;-73
2022/09/16 18:54:32;;;;;;;;;;;11.50;99.90;;;10.44;100.00;95128.38;10437837;28;2736;-73
2022/09/16 18:59:35;;;;;;;;;;;11.60;99.90;;;10.46;100.00;95139.63;10456922;28;2564;-74
2022/09/16 19:04:38;;;;;;;;;;;11.60;99.90;;;10.43;100.00;95140.19;10436959;28;2620;-72
2022/09/16 19:09:41;;;;;;;;;;;11.60;99.90;;;10.28;100.00;95147.38;10437086;28;2602;-73
2022/09/16 19:14:44;;;;;;;;;;;11.60;99.90;;;10.20;100.00;95125.69;10440124;28;2649;-73
2022/09/16 19:19:49;;;;;;;;;;;11.50;99.90;;;10.32;100.00;95126.13;10441828;28;2572;-74
2022/09/16 19:24:53;;;;;;;;;;;11.50;99.90;;;10.39;100.00;95129.25;10418581;28;2635;-73
2022/09/16 19:30:05;;;;;;;;;;;11.60;99.90;;;10.37;100.00;95131.44;10436039;28;2714;-75
2022/09/16 19:35:09;;;;;;;;;;;11.50;99.90;;;10.48;100.00;95143.63;10442632;28;2644;-72
2022/09/16 19:40:12;;;;;;;;;;;11.60;99.90;;;10.53;100.00;95137.41;10452439;28;2588;-72
2022/09/16 19:45:18;;;;;;;;;;;11.70;99.90;;;10.46;100.00;95134.25;10447356;28;2667;-74
2022/09/16 19:50:21;;;;;;;;;;;11.70;99.90;;;10.44;100.00;95142.63;10444534;28;3109;-73
2022/09/16 19:55:24;;;;;;;;;;;11.70;99.90;;;10.50;100.00;95146.06;10446465;28;2585;-72
2022/09/16 20:00:26;;;;;;;;;;;11.70;99.90;;;10.53;100.00;95140.09;10450220;28;2651;-72
2022/09/16 20:05:49;;;;;;;;;;;11.70;99.90;;;10.59;100.00;95136.25;10444622;28;2695;-73
2022/09/16 20:10:52;;;;;;;;;;;11.80;99.90;;;10.64;100.00;95130.00;10446585;28;2597;-73
2022/09/16 20:15:55;;;;;;;;;;;11.80;99.90;;;10.67;100.00;95114.09;10446885;28;2704;-71
2022/09/16 20:20:58;;;;;;;;;;;11.90;99.90;;;10.72;100.00;95130.16;10446702;28;2615;-71
2022/09/16 20:26:01;;;;;;;;;;;11.90;99.90;;;10.75;100.00;95137.66;10443793;28;2749;-72
2022/09/16 20:31:04;;;;;;;;;;;11.90;99.90;;;10.80;100.00;95139.44;10448234;28;2699;-72
2022/09/16 20:36:07;;;;;;;;;;;11.90;99.90;;;10.82;100.00;95132.72;10442581;28;2569;-72
2022/09/16 20:41:10;;;;;;;;;;;11.90;99.90;;;10.82;100.00;95137.28;10447222;28;2598;-72
2022/09/16 20:46:17;;;;;;;;;;;12.00;99.90;;;10.84;100.00;95121.66;10444884;28;2604;-72
2022/09/16 20:51:19;;;;;;;;;;;12.00;99.90;;;10.90;100.00;95136.63;10442357;28;2672;-71
2022/09/16 20:56:22;;;;;;;;;;;12.00;99.90;;;10.90;100.00;95143.91;10449796;28;2675;-73
2022/09/16 21:01:25;;;;;;;;;;;12.10;99.90;;;10.77;100.00;95135.47;10448984;28;2566;-73
2022/09/16 21:06:28;;;;;;;;;;;12.00;99.90;;;10.66;100.00;95123.25;10449956;28;2928;-73
2022/09/16 21:11:31;;;;;;;;;;;11.90;99.90;;;10.70;100.00;95128.84;10448907;28;2613;-70
2022/09/16 21:16:34;;;;;;;;;;;11.90;99.90;;;10.74;100.00;95141.41;10444644;28;2634;-72
2022/09/16 21:21:37;;;;;;;;;;;11.90;99.90;;;10.84;100.00;95145.84;10441732;28;2727;-72
2022/09/16 21:26:40;;;;;;;;;;;11.90;99.90;;;10.91;100.00;95148.97;10441082;28;2593;-71
2022/09/16 21:31:42;;;;;;;;;;;12.00;99.90;;;10.91;100.00;95148.97;10446580;28;2619;-72
2022/09/16 21:36:45;;;;;;;;;;;12.10;99.90;;;10.76;100.00;95166.13;10451253;28;2639;-75
2022/09/16 21:41:48;;;;;;;;;;;12.00;99.90;;;10.40;100.00;95176.50;10445619;28;2676;-77
2022/09/16 21:46:51;;;;;;;;;;;11.70;99.90;;;10.10;100.00;95179.50;10444951;28;2668;-73
2022/09/16 21:51:54;;;;;;;;;;;11.40;99.90;;;9.92;100.00;95162.22;10448628;28;2575;-72
2022/09/16 21:56:57;;;;;;;;;;;11.00;99.90;;;9.88;100.00;95171.94;10444011;28;2643;-74
2022/09/16 22:02:00;;;;;;;;;;;10.90;99.90;;;9.85;100.00;95167.13;10439926;28;2613;-72
2022/09/16 22:07:09;;;;;;;;;;;10.90;99.90;;;9.85;100.00;95175.19;10437629;28;2560;-72
2022/09/16 22:12:12;;;;;;;;;;;11.00;99.90;;;9.74;100.00;95163.75;10441260;28;2553;-72
2022/09/16 22:17:17;;;;;;;;;;;10.90;99.90;;;9.76;100.00;95175.00;10445512;28;2616;-73
2022/09/16 22:22:20;;;;;;;;;;;11.00;99.90;;;9.84;100.00;95170.91;10441819;28;2645;-73
2022/09/16 22:27:23;;;;;;;;;;;11.00;99.90;;;9.87;100.00;95170.34;10445736;28;2640;-73
2022/09/16 22:32:26;;;;;;;;;;;11.00;99.90;;;9.92;100.00;95179.13;10422951;28;2627;-72
2022/09/16 22:37:32;;;;;;;;;;;11.10;99.90;;;9.94;100.00;95176.19;10444372;28;2702;-74
2022/09/16 22:42:35;;;;;;;;;;;11.10;99.90;;;9.86;100.00;95176.78;10439383;28;2581;-72
2022/09/16 22:47:39;;;;;;;;;;;11.10;99.90;;;9.70;100.00;95171.56;10440026;28;2599;-72
2022/09/16 22:52:41;;;;;;;;;;;11.00;99.90;;;9.60;100.00;95171.66;10442198;28;2581;-72
2022/09/16 22:57:44;;;;;;;;;;;10.90;99.90;;;9.49;100.00;95159.41;10438077;28;2625;-75